sensor_id;sensor_type;location;lat;lon;timestamp;P1;P2;P0
44871;PMS7003;30602;51.060;17.226;2023-02-26T00:02:45;4;4;3
44871;PMS7003;30602;51.060;17.226;2023-02-26T00:07:22;7;6;4
44871;PMS7003;30602;51.060;17.226;2023-02-26T00:10:48;3;3;3
44871;PMS7003;30602;51.060;17.226;2023-02-26T00:14:10;4;3;2
44871;PMS7003;30602;51.060;17.226;2023-02-26T00:18:01;8;6;5
44871;PMS7003;30602;51.060;17.226;2023-02-26T00:21:34;4;4;3
44871;PMS7003;30602;51.060;17.226;2023-02-26T00:25:15;5;4;3
44871;PMS7003;30602;51.060;17.226;2023-02-26T00:28:39;4;4;3
44871;PMS7003;30602;51.060;17.226;2023-02-26T00:32:19;4;4;3
44871;PMS7003;30602;51.060;17.226;2023-02-26T00:35:54;5;4;3
44871;PMS7003;30602;51.060;17.226;2023-02-26T00:43:22;3;3;2
44871;PMS7003;30602;51.060;17.226;2023-02-26T00:50:22;5;4;3
44871;PMS7003;30602;51.060;17.226;2023-02-26T00:54:33;7;5;4
44871;PMS7003;30602;51.060;17.226;2023-02-26T00:58:28;17;12;7
44871;PMS7003;30602;51.060;17.226;2023-02-26T01:02:08;7;6;3
44871;PMS7003;30602;51.060;17.226;2023-02-26T01:06:46;11;10;6
44871;PMS7003;30602;51.060;17.226;2023-02-26T01:10:19;7;6;4
44871;PMS7003;30602;51.060;17.226;2023-02-26T01:13:58;4;2;1
44871;PMS7003;30602;51.060;17.226;2023-02-26T01:17:44;13;11;8
44871;PMS7003;30602;51.060;17.226;2023-02-26T01:21:35;8;6;5
44871;PMS7003;30602;51.060;17.226;2023-02-26T01:25:49;6;6;4
44871;PMS7003;30602;51.060;17.226;2023-02-26T01:29:44;9;7;4
44871;PMS7003;30602;51.060;17.226;2023-02-26T01:37:56;14;9;6
44871;PMS7003;30602;51.060;17.226;2023-02-26T01:42:10;3;3;2
44871;PMS7003;30602;51.060;17.226;2023-02-26T01:46:04;5;3;2
44871;PMS7003;30602;51.060;17.226;2023-02-26T01:49:29;4;4;3
44871;PMS7003;30602;51.060;17.226;2023-02-26T01:56:50;6;4;3
44871;PMS7003;30602;51.060;17.226;2023-02-26T02:01:32;12;7;6
44871;PMS7003;30602;51.060;17.226;2023-02-26T02:05:10;3;3;3
44871;PMS7003;30602;51.060;17.226;2023-02-26T02:08:49;5;5;3
44871;PMS7003;30602;51.060;17.226;2023-02-26T02:37:00;5;5;4
44871;PMS7003;30602;51.060;17.226;2023-02-26T02:41:43;12;6;4
44871;PMS7003;30602;51.060;17.226;2023-02-26T02:45:45;4;4;4
44871;PMS7003;30602;51.060;17.226;2023-02-26T02:56:41;4;2;2
44871;PMS7003;30602;51.060;17.226;2023-02-26T03:00:14;8;4;3
44871;PMS7003;30602;51.060;17.226;2023-02-26T03:04:08;5;4;2
44871;PMS7003;30602;51.060;17.226;2023-02-26T03:07:35;4;4;3
44871;PMS7003;30602;51.060;17.226;2023-02-26T03:11:21;5;3;2
44871;PMS7003;30602;51.060;17.226;2023-02-26T03:15:17;3;3;2
44871;PMS7003;30602;51.060;17.226;2023-02-26T03:26:53;3;3;2
44871;PMS7003;30602;51.060;17.226;2023-02-26T03:31:01;2;1;0
44871;PMS7003;30602;51.060;17.226;2023-02-26T03:38:41;0;0;0
44871;PMS7003;30602;51.060;17.226;2023-02-26T03:42:44;1;1;1
44871;PMS7003;30602;51.060;17.226;2023-02-26T03:46:38;3;2;1
44871;PMS7003;30602;51.060;17.226;2023-02-26T03:51:12;1;1;0
44871;PMS7003;30602;51.060;17.226;2023-02-26T03:58:41;2;2;0
44871;PMS7003;30602;51.060;17.226;2023-02-26T04:02:08;3;1;0
44871;PMS7003;30602;51.060;17.226;2023-02-26T04:05:55;1;1;1
44871;PMS7003;30602;51.060;17.226;2023-02-26T04:09:40;1;1;0
44871;PMS7003;30602;51.060;17.226;2023-02-26T04:13:30;0;0;0
44871;PMS7003;30602;51.060;17.226;2023-02-26T04:17:08;1;1;1
44871;PMS7003;30602;51.060;17.226;2023-02-26T04:20:29;0;0;0
44871;PMS7003;30602;51.060;17.226;2023-02-26T04:24:38;2;1;1
44871;PMS7003;30602;51.060;17.226;2023-02-26T04:28:08;4;2;2
44871;PMS7003;30602;51.060;17.226;2023-02-26T04:31:48;1;1;1
44871;PMS7003;30602;51.060;17.226;2023-02-26T04:35:40;3;1;1
44871;PMS7003;30602;51.060;17.226;2023-02-26T04:39:33;0;0;0
44871;PMS7003;30602;51.060;17.226;2023-02-26T04:43:40;3;1;1
44871;PMS7003;30602;51.060;17.226;2023-02-26T04:47:21;0;0;0
44871;PMS7003;30602;51.060;17.226;2023-02-26T04:50:59;0;0;0
44871;PMS7003;30602;51.060;17.226;2023-02-26T04:54:54;3;2;1
44871;PMS7003;30602;51.060;17.226;2023-02-26T04:58:16;3;1;1
44871;PMS7003;30602;51.060;17.226;2023-02-26T05:01:38;2;1;0
44871;PMS7003;30602;51.060;17.226;2023-02-26T05:05:02;0;0;0
44871;PMS7003;30602;51.060;17.226;2023-02-26T05:08:57;1;0;0
44871;PMS7003;30602;51.060;17.226;2023-02-26T05:12:19;2;2;1
44871;PMS7003;30602;51.060;17.226;2023-02-26T05:15:43;2;0;0
44871;PMS7003;30602;51.060;17.226;2023-02-26T05:19:05;2;1;1
44871;PMS7003;30602;51.060;17.226;2023-02-26T05:23:31;2;1;0
44871;PMS7003;30602;51.060;17.226;2023-02-26T05:27:24;1;1;0
44871;PMS7003;30602;51.060;17.226;2023-02-26T05:31:52;0;0;0
44871;PMS7003;30602;51.060;17.226;2023-02-26T05:35:33;0;0;0
44871;PMS7003;30602;51.060;17.226;2023-02-26T05:38:54;0;0;0
44871;PMS7003;30602;51.060;17.226;2023-02-26T05:42:33;2;1;1
44871;PMS7003;30602;51.060;17.226;2023-02-26T05:45:57;1;1;0
44871;PMS7003;30602;51.060;17.226;2023-02-26T05:49:59;2;2;0
44871;PMS7003;30602;51.060;17.226;2023-02-26T05:53:41;1;1;0
44871;PMS7003;30602;51.060;17.226;2023-02-26T05:57:29;0;0;0
44871;PMS7003;30602;51.060;17.226;2023-02-26T06:01:45;8;6;5
44871;PMS7003;30602;51.060;17.226;2023-02-26T06:05:41;2;2;1
44871;PMS7003;30602;51.060;17.226;2023-02-26T06:09:26;9;6;4
44871;PMS7003;30602;51.060;17.226;2023-02-26T06:13:06;2;1;0
44871;PMS7003;30602;51.060;17.226;2023-02-26T06:16:51;5;5;3
44871;PMS7003;30602;51.060;17.226;2023-02-26T06:20:15;2;2;1
44871;PMS7003;30602;51.060;17.226;2023-02-26T06:24:20;4;4;2
44871;PMS7003;30602;51.060;17.226;2023-02-26T06:27:41;2;1;1
44871;PMS7003;30602;51.060;17.226;2023-02-26T06:34:57;4;4;2
44871;PMS7003;30602;51.060;17.226;2023-02-26T06:38:39;4;4;2
44871;PMS7003;30602;51.060;17.226;2023-02-26T06:42:04;13;7;5
44871;PMS7003;30602;51.060;17.226;2023-02-26T06:45:42;9;5;3
44871;PMS7003;30602;51.060;17.226;2023-02-26T06:49:02;6;6;5
44871;PMS7003;30602;51.060;17.226;2023-02-26T06:52:42;7;6;4
44871;PMS7003;30602;51.060;17.226;2023-02-26T06:56:23;4;3;2
44871;PMS7003;30602;51.060;17.226;2023-02-26T06:59:46;4;3;2
44871;PMS7003;30602;51.060;17.226;2023-02-26T07:03:15;3;2;1
44871;PMS7003;30602;51.060;17.226;2023-02-26T07:06:37;3;3;2
44871;PMS7003;30602;51.060;17.226;2023-02-26T07:10:33;2;2;1
44871;PMS7003;30602;51.060;17.226;2023-02-26T07:14:16;4;4;3
44871;PMS7003;30602;51.060;17.226;2023-02-26T07:17:56;5;3;2
44871;PMS7003;30602;51.060;17.226;2023-02-26T07:21:42;6;4;3
44871;PMS7003;30602;51.060;17.226;2023-02-26T07:25:35;8;5;4
44871;PMS7003;30602;51.060;17.226;2023-02-26T07:28:58;7;7;5
44871;PMS7003;30602;51.060;17.226;2023-02-26T07:32:39;2;2;2
44871;PMS7003;30602;51.060;17.226;2023-02-26T07:36:32;4;2;2
44871;PMS7003;30602;51.060;17.226;2023-02-26T07:40:06;6;4;3
44871;PMS7003;30602;51.060;17.226;2023-02-26T07:43:48;2;1;1
44871;PMS7003;30602;51.060;17.226;2023-02-26T07:47:32;8;5;3
44871;PMS7003;30602;51.060;17.226;2023-02-26T07:51:24;5;3;2
44871;PMS7003;30602;51.060;17.226;2023-02-26T07:54:45;3;3;2
44871;PMS7003;30602;51.060;17.226;2023-02-26T07:58:07;7;4;3
44871;PMS7003;30602;51.060;17.226;2023-02-26T08:01:29;3;3;2
44871;PMS7003;30602;51.060;17.226;2023-02-26T08:05:17;4;4;2
44871;PMS7003;30602;51.060;17.226;2023-02-26T08:09:18;3;3;2
44871;PMS7003;30602;51.060;17.226;2023-02-26T08:12:52;6;4;2
44871;PMS7003;30602;51.060;17.226;2023-02-26T08:16:11;5;5;3
44871;PMS7003;30602;51.060;17.226;2023-02-26T08:20:07;10;10;7
44871;PMS7003;30602;51.060;17.226;2023-02-26T08:24:12;10;9;6
44871;PMS7003;30602;51.060;17.226;2023-02-26T08:28:32;7;5;3
44871;PMS7003;30602;51.060;17.226;2023-02-26T08:32:13;8;7;5
44871;PMS7003;30602;51.060;17.226;2023-02-26T08:36:21;4;4;3
44871;PMS7003;30602;51.060;17.226;2023-02-26T08:40:04;5;3;2
44871;PMS7003;30602;51.060;17.226;2023-02-26T08:44:08;4;4;3
44871;PMS7003;30602;51.060;17.226;2023-02-26T08:47:29;7;7;5
44871;PMS7003;30602;51.060;17.226;2023-02-26T08:51:15;8;6;4
44871;PMS7003;30602;51.060;17.226;2023-02-26T08:54:57;4;4;2
44871;PMS7003;30602;51.060;17.226;2023-02-26T09:02:12;6;3;3
44871;PMS7003;30602;51.060;17.226;2023-02-26T09:05:49;8;4;4
44871;PMS7003;30602;51.060;17.226;2023-02-26T09:09:40;8;5;3
44871;PMS7003;30602;51.060;17.226;2023-02-26T09:13:23;5;3;2
44871;PMS7003;30602;51.060;17.226;2023-02-26T09:17:06;4;4;3
44871;PMS7003;30602;51.060;17.226;2023-02-26T09:20:52;8;5;3
44871;PMS7003;30602;51.060;17.226;2023-02-26T09:24:57;7;6;5
44871;PMS7003;30602;51.060;17.226;2023-02-26T09:28:43;7;5;4
44871;PMS7003;30602;51.060;17.226;2023-02-26T09:32:23;4;3;3
44871;PMS7003;30602;51.060;17.226;2023-02-26T09:35:42;4;4;3
44871;PMS7003;30602;51.060;17.226;2023-02-26T09:39:29;8;5;3
44871;PMS7003;30602;51.060;17.226;2023-02-26T09:43:16;4;4;3
44871;PMS7003;30602;51.060;17.226;2023-02-26T09:51:18;2;1;1
44871;PMS7003;30602;51.060;17.226;2023-02-26T09:58:33;7;5;3
44871;PMS7003;30602;51.060;17.226;2023-02-26T10:02:26;4;3;2
44871;PMS7003;30602;51.060;17.226;2023-02-26T10:14:19;9;8;6
44871;PMS7003;30602;51.060;17.226;2023-02-26T10:21:42;11;8;6
44871;PMS7003;30602;51.060;17.226;2023-02-26T10:25:39;6;5;4
44871;PMS7003;30602;51.060;17.226;2023-02-26T10:41:24;10;7;6
44871;PMS7003;30602;51.060;17.226;2023-02-26T10:52:20;8;6;5
44871;PMS7003;30602;51.060;17.226;2023-02-26T10:56:04;9;8;7
44871;PMS7003;30602;51.060;17.226;2023-02-26T10:59:51;8;6;6
44871;PMS7003;30602;51.060;17.226;2023-02-26T11:07:14;6;5;3
44871;PMS7003;30602;51.060;17.226;2023-02-26T11:11:47;9;9;5
44871;PMS7003;30602;51.060;17.226;2023-02-26T11:15:22;6;3;3
44871;PMS7003;30602;51.060;17.226;2023-02-26T11:19:06;2;2;2
44871;PMS7003;30602;51.060;17.226;2023-02-26T11:22:46;11;9;6
44871;PMS7003;30602;51.060;17.226;2023-02-26T11:26:25;10;6;5
44871;PMS7003;30602;51.060;17.226;2023-02-26T11:29:56;8;7;5
44871;PMS7003;30602;51.060;17.226;2023-02-26T11:33:42;11;11;8
44871;PMS7003;30602;51.060;17.226;2023-02-26T11:38:00;3;2;1
44871;PMS7003;30602;51.060;17.226;2023-02-26T11:41:43;4;1;1
44871;PMS7003;30602;51.060;17.226;2023-02-26T11:45:51;4;3;2
44871;PMS7003;30602;51.060;17.226;2023-02-26T11:50:23;7;4;3
44871;PMS7003;30602;51.060;17.226;2023-02-26T11:58:09;2;2;2
44871;PMS7003;30602;51.060;17.226;2023-02-26T12:02:08;4;4;3
44871;PMS7003;30602;51.060;17.226;2023-02-26T12:05:37;2;2;1
44871;PMS7003;30602;51.060;17.226;2023-02-26T12:09:40;1;1;1
44871;PMS7003;30602;51.060;17.226;2023-02-26T12:13:24;4;3;2
44871;PMS7003;30602;51.060;17.226;2023-02-26T12:20:54;2;1;0
44871;PMS7003;30602;51.060;17.226;2023-02-26T12:24:49;2;2;1
44871;PMS7003;30602;51.060;17.226;2023-02-26T12:32:34;5;4;2
44871;PMS7003;30602;51.060;17.226;2023-02-26T12:36:18;2;1;0
44871;PMS7003;30602;51.060;17.226;2023-02-26T12:47:33;7;3;3
44871;PMS7003;30602;51.060;17.226;2023-02-26T13:14:24;10;9;5
44871;PMS7003;30602;51.060;17.226;2023-02-26T13:22:14;8;7;5
44871;PMS7003;30602;51.060;17.226;2023-02-26T13:25:42;18;14;9
44871;PMS7003;30602;51.060;17.226;2023-02-26T13:33:31;6;6;5
44871;PMS7003;30602;51.060;17.226;2023-02-26T13:37:25;6;4;3
44871;PMS7003;30602;51.060;17.226;2023-02-26T13:41:04;5;5;4
44871;PMS7003;30602;51.060;17.226;2023-02-26T13:52:24;4;4;2
44871;PMS7003;30602;51.060;17.226;2023-02-26T14:05:06;4;0;0
44871;PMS7003;30602;51.060;17.226;2023-02-26T14:08:42;2;2;0
44871;PMS7003;30602;51.060;17.226;2023-02-26T14:16:08;5;2;1
44871;PMS7003;30602;51.060;17.226;2023-02-26T14:32:25;7;7;4
44871;PMS7003;30602;51.060;17.226;2023-02-26T14:35:53;11;9;7
44871;PMS7003;30602;51.060;17.226;2023-02-26T14:39:36;8;8;5
44871;PMS7003;30602;51.060;17.226;2023-02-26T14:47:20;10;6;5
44871;PMS7003;30602;51.060;17.226;2023-02-26T15:11:31;9;7;6
44871;PMS7003;30602;51.060;17.226;2023-02-26T15:19:13;9;7;5
44871;PMS7003;30602;51.060;17.226;2023-02-26T15:23:02;11;10;7
44871;PMS7003;30602;51.060;17.226;2023-02-26T15:26:34;13;10;8
44871;PMS7003;30602;51.060;17.226;2023-02-26T15:30:14;16;11;7
44871;PMS7003;30602;51.060;17.226;2023-02-26T15:34:32;10;9;8
44871;PMS7003;30602;51.060;17.226;2023-02-26T15:37:55;8;8;6
44871;PMS7003;30602;51.060;17.226;2023-02-26T15:41:32;13;11;8
44871;PMS7003;30602;51.060;17.226;2023-02-26T15:45:11;8;7;6
44871;PMS7003;30602;51.060;17.226;2023-02-26T15:48:36;7;7;5
44871;PMS7003;30602;51.060;17.226;2023-02-26T15:52:24;9;8;6
44871;PMS7003;30602;51.060;17.226;2023-02-26T15:55:51;9;8;6
44871;PMS7003;30602;51.060;17.226;2023-02-26T15:59:16;8;8;6
44871;PMS7003;30602;51.060;17.226;2023-02-26T16:03:09;9;9;6
44871;PMS7003;30602;51.060;17.226;2023-02-26T16:06:40;11;9;6
44871;PMS7003;30602;51.060;17.226;2023-02-26T16:10:27;11;9;6
44871;PMS7003;30602;51.060;17.226;2023-02-26T16:13:53;10;9;7
44871;PMS7003;30602;51.060;17.226;2023-02-26T16:17:49;13;10;6
44871;PMS7003;30602;51.060;17.226;2023-02-26T16:21:31;6;4;4
44871;PMS7003;30602;51.060;17.226;2023-02-26T16:25:17;7;4;3
44871;PMS7003;30602;51.060;17.226;2023-02-26T16:28:46;5;3;3
44871;PMS7003;30602;51.060;17.226;2023-02-26T16:33:11;5;3;2
44871;PMS7003;30602;51.060;17.226;2023-02-26T16:37:09;2;2;2
44871;PMS7003;30602;51.060;17.226;2023-02-26T16:40:39;9;7;4
44871;PMS7003;30602;51.060;17.226;2023-02-26T16:44:02;8;8;6
44871;PMS7003;30602;51.060;17.226;2023-02-26T16:47:51;3;3;3
44871;PMS7003;30602;51.060;17.226;2023-02-26T16:51:36;6;6;4
44871;PMS7003;30602;51.060;17.226;2023-02-26T16:55:22;10;8;7
44871;PMS7003;30602;51.060;17.226;2023-02-26T17:02:56;4;3;2
44871;PMS7003;30602;51.060;17.226;2023-02-26T17:07:26;12;11;9
44871;PMS7003;30602;51.060;17.226;2023-02-26T17:11:06;18;16;11
44871;PMS7003;30602;51.060;17.226;2023-02-26T17:14:42;18;14;11
44871;PMS7003;30602;51.060;17.226;2023-02-26T17:18:05;49;38;26
44871;PMS7003;30602;51.060;17.226;2023-02-26T17:22:00;63;50;31
44871;PMS7003;30602;51.060;17.226;2023-02-26T17:25:41;60;49;28
44871;PMS7003;30602;51.060;17.226;2023-02-26T17:33:03;47;40;26
44871;PMS7003;30602;51.060;17.226;2023-02-26T17:37:08;49;39;24
44871;PMS7003;30602;51.060;17.226;2023-02-26T17:41:37;54;40;25
44871;PMS7003;30602;51.060;17.226;2023-02-26T17:49:29;50;41;27
44871;PMS7003;30602;51.060;17.226;2023-02-26T17:53:41;47;41;27
44871;PMS7003;30602;51.060;17.226;2023-02-26T17:57:15;58;45;29
44871;PMS7003;30602;51.060;17.226;2023-02-26T18:01:10;71;55;34
44871;PMS7003;30602;51.060;17.226;2023-02-26T18:04:33;63;51;32
44871;PMS7003;30602;51.060;17.226;2023-02-26T18:08:29;65;51;32
44871;PMS7003;30602;51.060;17.226;2023-02-26T18:12:13;62;48;30
44871;PMS7003;30602;51.060;17.226;2023-02-26T18:15:54;37;32;21
44871;PMS7003;30602;51.060;17.226;2023-02-26T18:19:29;34;28;19
44871;PMS7003;30602;51.060;17.226;2023-02-26T18:23:36;41;31;17
44871;PMS7003;30602;51.060;17.226;2023-02-26T18:27:46;41;31;21
44871;PMS7003;30602;51.060;17.226;2023-02-26T18:31:31;42;30;18
44871;PMS7003;30602;51.060;17.226;2023-02-26T18:35:42;29;24;15
44871;PMS7003;30602;51.060;17.226;2023-02-26T18:39:16;50;39;20
44871;PMS7003;30602;51.060;17.226;2023-02-26T18:43:18;45;38;22
44871;PMS7003;30602;51.060;17.226;2023-02-26T18:47:17;37;29;18
44871;PMS7003;30602;51.060;17.226;2023-02-26T18:51:08;22;18;13
44871;PMS7003;30602;51.060;17.226;2023-02-26T18:54:27;22;19;13
44871;PMS7003;30602;51.060;17.226;2023-02-26T18:58:32;19;16;12
44871;PMS7003;30602;51.060;17.226;2023-02-26T19:09:51;20;11;8
44871;PMS7003;30602;51.060;17.226;2023-02-26T19:13:33;13;10;7
44871;PMS7003;30602;51.060;17.226;2023-02-26T19:17:28;12;9;5
44871;PMS7003;30602;51.060;17.226;2023-02-26T19:21:02;23;22;14
44871;PMS7003;30602;51.060;17.226;2023-02-26T19:24:44;52;42;25
44871;PMS7003;30602;51.060;17.226;2023-02-26T19:28:48;47;38;23
44871;PMS7003;30602;51.060;17.226;2023-02-26T19:32:30;65;48;28
44871;PMS7003;30602;51.060;17.226;2023-02-26T19:36:19;51;41;24
44871;PMS7003;30602;51.060;17.226;2023-02-26T19:40:08;16;15;11
44871;PMS7003;30602;51.060;17.226;2023-02-26T19:44:30;21;15;10
44871;PMS7003;30602;51.060;17.226;2023-02-26T19:48:45;40;28;19
44871;PMS7003;30602;51.060;17.226;2023-02-26T19:52:09;48;40;23
44871;PMS7003;30602;51.060;17.226;2023-02-26T19:56:05;28;20;14
44871;PMS7003;30602;51.060;17.226;2023-02-26T19:59:49;79;62;37
44871;PMS7003;30602;51.060;17.226;2023-02-26T20:03:31;28;25;18
44871;PMS7003;30602;51.060;17.226;2023-02-26T20:06:58;49;41;25
44871;PMS7003;30602;51.060;17.226;2023-02-26T20:11:20;58;49;30
44871;PMS7003;30602;51.060;17.226;2023-02-26T20:15:04;45;39;25
44871;PMS7003;30602;51.060;17.226;2023-02-26T20:19:12;26;21;16
44871;PMS7003;30602;51.060;17.226;2023-02-26T20:22:55;18;16;12
44871;PMS7003;30602;51.060;17.226;2023-02-26T20:26:24;28;26;15
44871;PMS7003;30602;51.060;17.226;2023-02-26T20:30:28;27;21;14
44871;PMS7003;30602;51.060;17.226;2023-02-26T20:34:54;28;25;12
44871;PMS7003;30602;51.060;17.226;2023-02-26T20:38:20;36;32;19
44871;PMS7003;30602;51.060;17.226;2023-02-26T20:41:43;22;18;12
44871;PMS7003;30602;51.060;17.226;2023-02-26T20:45:27;17;11;10
44871;PMS7003;30602;51.060;17.226;2023-02-26T20:48:53;22;19;13
44871;PMS7003;30602;51.060;17.226;2023-02-26T20:52:37;29;23;16
44871;PMS7003;30602;51.060;17.226;2023-02-26T20:55:56;16;16;12
44871;PMS7003;30602;51.060;17.226;2023-02-26T20:59:16;21;18;12
44871;PMS7003;30602;51.060;17.226;2023-02-26T21:02:37;33;27;15
44871;PMS7003;30602;51.060;17.226;2023-02-26T21:05:58;26;22;14
44871;PMS7003;30602;51.060;17.226;2023-02-26T21:09:41;31;25;14
44871;PMS7003;30602;51.060;17.226;2023-02-26T21:13:51;25;20;13
44871;PMS7003;30602;51.060;17.226;2023-02-26T21:17:55;28;24;16
44871;PMS7003;30602;51.060;17.226;2023-02-26T21:21:34;16;16;10
44871;PMS7003;30602;51.060;17.226;2023-02-26T21:24:58;19;13;9
44871;PMS7003;30602;51.060;17.226;2023-02-26T21:28:29;20;19;12
44871;PMS7003;30602;51.060;17.226;2023-02-26T21:31:53;23;17;11
44871;PMS7003;30602;51.060;17.226;2023-02-26T21:35:49;20;19;13
44871;PMS7003;30602;51.060;17.226;2023-02-26T21:39:48;22;21;15
44871;PMS7003;30602;51.060;17.226;2023-02-26T21:43:28;31;25;16
44871;PMS7003;30602;51.060;17.226;2023-02-26T21:46:54;25;18;12
44871;PMS7003;30602;51.060;17.226;2023-02-26T21:50:50;19;16;11
44871;PMS7003;30602;51.060;17.226;2023-02-26T21:55:22;23;19;13
44871;PMS7003;30602;51.060;17.226;2023-02-26T21:59:34;27;19;13
44871;PMS7003;30602;51.060;17.226;2023-02-26T22:03:39;16;14;9
44871;PMS7003;30602;51.060;17.226;2023-02-26T22:07:00;21;19;12
44871;PMS7003;30602;51.060;17.226;2023-02-26T22:10:38;24;19;12
44871;PMS7003;30602;51.060;17.226;2023-02-26T22:14:19;17;16;12
44871;PMS7003;30602;51.060;17.226;2023-02-26T22:18:11;18;17;12
44871;PMS7003;30602;51.060;17.226;2023-02-26T22:22:04;12;9;5
44871;PMS7003;30602;51.060;17.226;2023-02-26T22:25:38;10;8;7
44871;PMS7003;30602;51.060;17.226;2023-02-26T22:29:48;7;7;5
44871;PMS7003;30602;51.060;17.226;2023-02-26T22:33:52;14;10;7
44871;PMS7003;30602;51.060;17.226;2023-02-26T22:37:23;10;8;5
44871;PMS7003;30602;51.060;17.226;2023-02-26T22:45:23;8;6;5
44871;PMS7003;30602;51.060;17.226;2023-02-26T22:49:06;11;11;8
44871;PMS7003;30602;51.060;17.226;2023-02-26T22:52:52;10;7;6
44871;PMS7003;30602;51.060;17.226;2023-02-26T22:56:37;14;13;9
44871;PMS7003;30602;51.060;17.226;2023-02-26T23:00:13;15;13;10
44871;PMS7003;30602;51.060;17.226;2023-02-26T23:03:43;17;15;8
44871;PMS7003;30602;51.060;17.226;2023-02-26T23:07:24;12;11;9
44871;PMS7003;30602;51.060;17.226;2023-02-26T23:11:03;13;10;6
44871;PMS7003;30602;51.060;17.226;2023-02-26T23:15:32;14;9;8
44871;PMS7003;30602;51.060;17.226;2023-02-26T23:19:15;13;12;8
44871;PMS7003;30602;51.060;17.226;2023-02-26T23:22:48;16;13;9
44871;PMS7003;30602;51.060;17.226;2023-02-26T23:26:53;13;12;8
44871;PMS7003;30602;51.060;17.226;2023-02-26T23:30:32;15;12;10
44871;PMS7003;30602;51.060;17.226;2023-02-26T23:34:49;16;14;10
44871;PMS7003;30602;51.060;17.226;2023-02-26T23:42:03;14;10;8
44871;PMS7003;30602;51.060;17.226;2023-02-26T23:45:37;17;15;10
44871;PMS7003;30602;51.060;17.226;2023-02-26T23:49:15;12;10;7
44871;PMS7003;30602;51.060;17.226;2023-02-26T23:52:57;15;13;9
44871;PMS7003;30602;51.060;17.226;2023-02-26T23:56:16;17;14;10
44871;PMS7003;30602;51.060;17.226;2023-02-26T23:59:58;16;12;10
